SAS2301 ENGM-ENKB
Flight info
| Callsign | SAS2301 |
|---|---|
| Flight time | 0h 37m |
| Altitude | 30000 |
| Route | EVTOG DCT PIGED DCT VEPUL |
| Aircraft | B737/M-SDE3FGHIJ1RWXYZ/LB1 |
Departure
| Time | 2026-04-18 00:49 |
|---|---|
| Airport | Oslo-Gardermoen International Airport (ENGM) |
Arrival
| Time | 2026-04-18 01:26 |
|---|---|
| Airport | Kristiansund Airport, Kvernberget (ENKB) |
| Time | Latitude | Longitude | Altitude | Speed | Heading |
|---|---|---|---|---|---|
| 2026-04-18 00:34 | 60.19602 | 11.10176 | 684 ft | 0 kts | 286° |
| 2026-04-18 00:39 | 60.19597 | 11.10209 | 678 ft | 4 kts | 286° |
| 2026-04-18 00:40 | 60.19590 | 11.10260 | 682 ft | 3 kts | 286° |
| 2026-04-18 00:40 | 60.19590 | 11.10265 | 682 ft | 1 kts | 286° |
| 2026-04-18 00:42 | 60.19590 | 11.10262 | 682 ft | 1 kts | 290° |
| 2026-04-18 00:42 | 60.19599 | 11.10258 | 680 ft | 2 kts | 3° |
| 2026-04-18 00:42 | 60.19605 | 11.10285 | 679 ft | 4 kts | 71° |
| 2026-04-18 00:43 | 60.19617 | 11.10358 | 682 ft | 7 kts | 71° |
| 2026-04-18 00:43 | 60.19660 | 11.10446 | 682 ft | 11 kts | 16° |
| 2026-04-18 00:43 | 60.19740 | 11.10491 | 683 ft | 13 kts | 16° |
| 2026-04-18 00:43 | 60.19829 | 11.10543 | 681 ft | 13 kts | 16° |
| 2026-04-18 00:44 | 60.19916 | 11.10593 | 683 ft | 13 kts | 16° |
| 2026-04-18 00:44 | 60.19977 | 11.10498 | 683 ft | 13 kts | 285° |
| 2026-04-18 00:44 | 60.20001 | 11.10331 | 679 ft | 12 kts | 286° |
| 2026-04-18 00:44 | 60.20024 | 11.10168 | 685 ft | 12 kts | 286° |
| 2026-04-18 00:45 | 60.20047 | 11.10009 | 682 ft | 12 kts | 286° |
| 2026-04-18 00:45 | 60.20069 | 11.09854 | 683 ft | 11 kts | 285° |
| 2026-04-18 00:45 | 60.20091 | 11.09701 | 682 ft | 12 kts | 286° |
| 2026-04-18 00:45 | 60.20115 | 11.09531 | 680 ft | 14 kts | 286° |
| 2026-04-18 00:46 | 60.20143 | 11.09337 | 678 ft | 15 kts | 286° |
| 2026-04-18 00:46 | 60.20174 | 11.09120 | 677 ft | 17 kts | 286° |
| 2026-04-18 00:46 | 60.20212 | 11.08948 | 679 ft | 11 kts | 330° |
| 2026-04-18 00:46 | 60.20284 | 11.08966 | 680 ft | 11 kts | 16° |
| 2026-04-18 00:47 | 60.20355 | 11.09007 | 681 ft | 11 kts | 16° |
| 2026-04-18 00:47 | 60.20432 | 11.09052 | 681 ft | 12 kts | 16° |
| 2026-04-18 00:47 | 60.20515 | 11.09100 | 681 ft | 12 kts | 16° |
| 2026-04-18 00:47 | 60.20597 | 11.09146 | 681 ft | 12 kts | 12° |
| 2026-04-18 00:48 | 60.20649 | 11.09041 | 681 ft | 12 kts | 285° |
| 2026-04-18 00:48 | 60.20674 | 11.08868 | 675 ft | 14 kts | 286° |
| 2026-04-18 00:48 | 60.20685 | 11.08677 | 677 ft | 14 kts | 248° |
| 2026-04-18 00:49 | 60.20035 | 11.08260 | 675 ft | 117 kts | 196° |
| 2026-04-18 00:49 | 60.19067 | 11.07702 | 723 ft | 171 kts | 195° |
| 2026-04-18 00:49 | 60.17921 | 11.07056 | 1472 ft | 170 kts | 196° |
| 2026-04-18 00:49 | 60.16777 | 11.06268 | 2233 ft | 186 kts | 209° |
| 2026-04-18 00:50 | 60.15884 | 11.04164 | 2642 ft | 218 kts | 244° |
| 2026-04-18 00:50 | 60.15291 | 11.01158 | 3134 ft | 247 kts | 245° |
| 2026-04-18 00:50 | 60.14626 | 10.97867 | 3975 ft | 255 kts | 245° |
| 2026-04-18 00:50 | 60.14063 | 10.94493 | 5111 ft | 259 kts | 258° |
| 2026-04-18 00:51 | 60.13927 | 10.90868 | 6247 ft | 260 kts | 263° |
| 2026-04-18 00:51 | 60.13848 | 10.87245 | 7421 ft | 260 kts | 263° |
| 2026-04-18 00:51 | 60.13741 | 10.83562 | 8376 ft | 270 kts | 263° |
| 2026-04-18 00:51 | 60.13611 | 10.79759 | 9362 ft | 275 kts | 263° |
| 2026-04-18 00:52 | 60.13481 | 10.75936 | 10475 ft | 277 kts | 264° |
| 2026-04-18 00:52 | 60.13340 | 10.71951 | 10988 ft | 299 kts | 263° |
| 2026-04-18 00:52 | 60.13307 | 10.67571 | 11314 ft | 328 kts | 277° |
| 2026-04-18 00:52 | 60.14187 | 10.63271 | 12140 ft | 343 kts | 304° |
| 2026-04-18 00:53 | 60.15993 | 10.60095 | 13128 ft | 352 kts | 329° |
| 2026-04-18 00:53 | 60.18212 | 10.57945 | 14129 ft | 357 kts | 333° |
| 2026-04-18 00:53 | 60.20476 | 10.55790 | 14919 ft | 362 kts | 331° |
| 2026-04-18 00:53 | 60.22750 | 10.53502 | 15710 ft | 369 kts | 330° |
| 2026-04-18 00:54 | 60.25077 | 10.51244 | 16522 ft | 375 kts | 334° |
| 2026-04-18 00:54 | 60.27513 | 10.49291 | 17369 ft | 380 kts | 336° |
| 2026-04-18 00:54 | 60.30013 | 10.47436 | 18204 ft | 385 kts | 337° |
| 2026-04-18 00:54 | 60.32544 | 10.45573 | 18948 ft | 390 kts | 337° |
| 2026-04-18 00:55 | 60.35101 | 10.43662 | 19678 ft | 394 kts | 336° |
| 2026-04-18 00:55 | 60.37675 | 10.41705 | 20410 ft | 398 kts | 336° |
| 2026-04-18 00:55 | 60.40270 | 10.39707 | 21126 ft | 401 kts | 336° |
| 2026-04-18 00:55 | 60.42895 | 10.37673 | 21825 ft | 405 kts | 336° |
| 2026-04-18 00:56 | 60.45540 | 10.35617 | 22500 ft | 409 kts | 336° |
| 2026-04-18 00:56 | 60.48208 | 10.33511 | 23142 ft | 412 kts | 333° |
| 2026-04-18 00:56 | 60.50781 | 10.30914 | 23739 ft | 414 kts | 327° |
| 2026-04-18 00:56 | 60.53276 | 10.27951 | 24251 ft | 417 kts | 325° |
| 2026-04-18 00:57 | 60.55750 | 10.24875 | 24787 ft | 419 kts | 324° |
| 2026-04-18 00:57 | 60.58245 | 10.21774 | 25331 ft | 422 kts | 325° |
| 2026-04-18 00:57 | 60.60774 | 10.18677 | 25813 ft | 426 kts | 325° |
| 2026-04-18 00:57 | 60.63342 | 10.15576 | 26232 ft | 431 kts | 326° |
| 2026-04-18 00:58 | 60.65937 | 10.12474 | 26721 ft | 434 kts | 326° |
| 2026-04-18 00:58 | 60.68549 | 10.09363 | 27232 ft | 436 kts | 326° |
| 2026-04-18 00:58 | 60.71182 | 10.06228 | 27715 ft | 439 kts | 326° |
| 2026-04-18 00:58 | 60.73794 | 10.03110 | 28164 ft | 442 kts | 326° |
| 2026-04-18 00:59 | 60.76451 | 9.99932 | 28714 ft | 442 kts | 326° |
| 2026-04-18 00:59 | 60.79096 | 9.96762 | 29391 ft | 440 kts | 326° |
| 2026-04-18 00:59 | 60.81727 | 9.93601 | 30086 ft | 437 kts | 326° |
| 2026-04-18 00:59 | 60.84389 | 9.90512 | 30237 ft | 444 kts | 327° |
| 2026-04-18 01:00 | 60.89856 | 9.84594 | 30235 ft | 441 kts | 328° |
| 2026-04-18 01:00 | 60.95276 | 9.78801 | 30257 ft | 440 kts | 328° |
| 2026-04-18 01:01 | 61.00699 | 9.72910 | 30261 ft | 442 kts | 328° |
| 2026-04-18 01:01 | 61.06129 | 9.66945 | 30252 ft | 443 kts | 328° |
| 2026-04-18 01:02 | 61.11577 | 9.60926 | 30255 ft | 444 kts | 328° |
| 2026-04-18 01:02 | 61.17031 | 9.54876 | 30253 ft | 445 kts | 328° |
| 2026-04-18 01:03 | 61.22493 | 9.48796 | 30242 ft | 445 kts | 328° |
| 2026-04-18 01:03 | 61.27938 | 9.42712 | 30240 ft | 444 kts | 328° |
| 2026-04-18 01:04 | 61.33372 | 9.36615 | 30233 ft | 443 kts | 328° |
| 2026-04-18 01:04 | 61.38787 | 9.30515 | 30240 ft | 442 kts | 328° |
| 2026-04-18 01:05 | 61.44202 | 9.24390 | 30239 ft | 442 kts | 327° |
| 2026-04-18 01:05 | 61.49609 | 9.18249 | 30269 ft | 443 kts | 327° |
| 2026-04-18 01:06 | 61.55037 | 9.12058 | 30241 ft | 445 kts | 327° |
| 2026-04-18 01:06 | 61.60489 | 9.05817 | 30229 ft | 447 kts | 327° |
| 2026-04-18 01:07 | 61.65923 | 8.99573 | 30227 ft | 448 kts | 327° |
| 2026-04-18 01:07 | 61.71391 | 8.93263 | 30218 ft | 448 kts | 327° |
| 2026-04-18 01:08 | 61.76853 | 8.86936 | 30231 ft | 447 kts | 327° |
| 2026-04-18 01:08 | 61.82305 | 8.80592 | 30215 ft | 447 kts | 327° |
| 2026-04-18 01:09 | 61.87738 | 8.74244 | 30225 ft | 446 kts | 327° |
| 2026-04-18 01:09 | 61.93177 | 8.67865 | 30014 ft | 448 kts | 327° |
| 2026-04-18 01:10 | 61.95901 | 8.64660 | 29717 ft | 447 kts | 327° |
| 2026-04-18 01:10 | 61.98620 | 8.61456 | 29476 ft | 448 kts | 327° |
| 2026-04-18 01:10 | 62.01347 | 8.58232 | 29106 ft | 449 kts | 327° |
| 2026-04-18 01:10 | 62.04097 | 8.54974 | 28195 ft | 451 kts | 327° |
| 2026-04-18 01:11 | 62.06833 | 8.51728 | 27333 ft | 451 kts | 328° |
| 2026-04-18 01:11 | 62.09575 | 8.48469 | 26459 ft | 451 kts | 328° |
| 2026-04-18 01:11 | 62.12317 | 8.45203 | 25724 ft | 449 kts | 328° |
| 2026-04-18 01:11 | 62.15030 | 8.41966 | 25050 ft | 445 kts | 328° |
| 2026-04-18 01:12 | 62.17718 | 8.38752 | 24378 ft | 441 kts | 328° |
| 2026-04-18 01:12 | 62.20380 | 8.35564 | 23717 ft | 437 kts | 328° |
| 2026-04-18 01:12 | 62.23039 | 8.32458 | 22942 ft | 433 kts | 329° |
| 2026-04-18 01:12 | 62.25693 | 8.29430 | 22262 ft | 429 kts | 329° |
| 2026-04-18 01:13 | 62.28316 | 8.26453 | 21572 ft | 425 kts | 329° |
| 2026-04-18 01:13 | 62.30915 | 8.23497 | 20905 ft | 421 kts | 329° |
| 2026-04-18 01:13 | 62.33490 | 8.20553 | 20246 ft | 418 kts | 329° |
| 2026-04-18 01:13 | 62.36043 | 8.17618 | 19571 ft | 415 kts | 329° |
| 2026-04-18 01:14 | 62.38578 | 8.14693 | 18928 ft | 412 kts | 329° |
| 2026-04-18 01:14 | 62.41101 | 8.11773 | 18254 ft | 410 kts | 329° |
| 2026-04-18 01:14 | 62.43608 | 8.08865 | 17514 ft | 409 kts | 329° |
| 2026-04-18 01:14 | 62.46102 | 8.05967 | 16843 ft | 406 kts | 329° |
| 2026-04-18 01:15 | 62.48581 | 8.03081 | 16126 ft | 404 kts | 329° |
| 2026-04-18 01:15 | 62.51047 | 8.00208 | 15443 ft | 402 kts | 329° |
| 2026-04-18 01:15 | 62.53499 | 7.97345 | 14803 ft | 399 kts | 329° |
| 2026-04-18 01:15 | 62.55931 | 7.94500 | 14079 ft | 397 kts | 330° |
| 2026-04-18 01:16 | 62.58318 | 7.91701 | 13374 ft | 394 kts | 330° |
| 2026-04-18 01:16 | 62.60715 | 7.88885 | 12717 ft | 390 kts | 330° |
| 2026-04-18 01:16 | 62.63087 | 7.86094 | 12083 ft | 385 kts | 330° |
| 2026-04-18 01:16 | 62.65395 | 7.83375 | 11456 ft | 370 kts | 330° |
| 2026-04-18 01:17 | 62.67608 | 7.80763 | 10857 ft | 355 kts | 330° |
| 2026-04-18 01:17 | 62.69769 | 7.78205 | 10286 ft | 352 kts | 330° |
| 2026-04-18 01:17 | 62.71912 | 7.75665 | 9644 ft | 349 kts | 330° |
| 2026-04-18 01:17 | 62.74030 | 7.73151 | 9037 ft | 345 kts | 330° |
| 2026-04-18 01:18 | 62.76126 | 7.70659 | 8436 ft | 342 kts | 330° |
| 2026-04-18 01:18 | 62.78200 | 7.68190 | 7862 ft | 337 kts | 330° |
| 2026-04-18 01:18 | 62.80248 | 7.65748 | 7294 ft | 334 kts | 329° |
| 2026-04-18 01:18 | 62.82287 | 7.63312 | 6704 ft | 333 kts | 329° |
| 2026-04-18 01:19 | 62.84309 | 7.60891 | 6099 ft | 330 kts | 330° |
| 2026-04-18 01:19 | 62.86314 | 7.58487 | 5495 ft | 327 kts | 330° |
| 2026-04-18 01:19 | 62.88297 | 7.56107 | 5096 ft | 320 kts | 330° |
| 2026-04-18 01:19 | 62.90197 | 7.53823 | 4952 ft | 304 kts | 330° |
| 2026-04-18 01:20 | 62.92010 | 7.51644 | 4811 ft | 290 kts | 330° |
| 2026-04-18 01:20 | 62.93736 | 7.49563 | 4703 ft | 277 kts | 330° |
| 2026-04-18 01:20 | 62.95396 | 7.47560 | 4571 ft | 267 kts | 329° |
| 2026-04-18 01:20 | 62.96992 | 7.45635 | 4456 ft | 256 kts | 329° |
| 2026-04-18 01:21 | 62.98618 | 7.44095 | 4232 ft | 253 kts | 339° |
| 2026-04-18 01:21 | 63.00274 | 7.42886 | 4027 ft | 248 kts | 340° |
| 2026-04-18 01:21 | 63.01901 | 7.41712 | 3813 ft | 244 kts | 341° |
| 2026-04-18 01:21 | 63.03555 | 7.41314 | 3586 ft | 240 kts | 13° |
| 2026-04-18 01:22 | 63.04956 | 7.43088 | 3366 ft | 234 kts | 53° |
| 2026-04-18 01:22 | 63.05680 | 7.46179 | 3154 ft | 223 kts | 71° |
| 2026-04-18 01:22 | 63.06188 | 7.49348 | 2889 ft | 215 kts | 73° |
| 2026-04-18 01:22 | 63.06649 | 7.52431 | 2665 ft | 207 kts | 73° |
| 2026-04-18 01:23 | 63.06943 | 7.54401 | 2497 ft | 201 kts | 73° |
| 2026-04-18 01:23 | 63.07373 | 7.57270 | 2252 ft | 192 kts | 73° |
| 2026-04-18 01:23 | 63.07780 | 7.59980 | 2068 ft | 180 kts | 73° |
| 2026-04-18 01:23 | 63.08157 | 7.62482 | 1960 ft | 165 kts | 72° |
| 2026-04-18 01:24 | 63.08504 | 7.64777 | 1812 ft | 149 kts | 73° |
| 2026-04-18 01:24 | 63.08817 | 7.66860 | 1568 ft | 137 kts | 73° |
| 2026-04-18 01:24 | 63.09112 | 7.68814 | 1400 ft | 133 kts | 73° |
| 2026-04-18 01:24 | 63.09410 | 7.70771 | 1223 ft | 136 kts | 73° |
| 2026-04-18 01:25 | 63.09707 | 7.72749 | 1036 ft | 135 kts | 73° |
| 2026-04-18 01:25 | 63.10003 | 7.74683 | 832 ft | 131 kts | 72° |
| 2026-04-18 01:25 | 63.10293 | 7.76575 | 646 ft | 129 kts | 72° |
| 2026-04-18 01:25 | 63.10573 | 7.78466 | 453 ft | 128 kts | 71° |
| 2026-04-18 01:26 | 63.10861 | 7.80325 | 274 ft | 127 kts | 71° |
| 2026-04-18 01:26 | 63.11132 | 7.82104 | 214 ft | 108 kts | 71° |
| 2026-04-18 01:26 | 63.11301 | 7.83223 | 215 ft | 46 kts | 71° |
| 2026-04-18 01:26 | 63.11361 | 7.83493 | 215 ft | 10 kts | 61° |
| 2026-04-18 01:27 | 63.11332 | 7.83545 | 216 ft | 7 kts | 225° |
| 2026-04-18 01:27 | 63.11332 | 7.83423 | 214 ft | 10 kts | 263° |
| 2026-04-18 01:27 | 63.11308 | 7.83250 | 210 ft | 14 kts | 251° |
| 2026-04-18 01:27 | 63.11271 | 7.83013 | 219 ft | 18 kts | 251° |
| 2026-04-18 01:28 | 63.11227 | 7.82734 | 218 ft | 15 kts | 250° |
| 2026-04-18 01:28 | 63.11244 | 7.82591 | 216 ft | 7 kts | 341° |
| 2026-04-18 01:28 | 63.11288 | 7.82560 | 212 ft | 7 kts | 347° |
| 2026-04-18 01:28 | 63.11321 | 7.82553 | 213 ft | 2 kts | 343° |
| 2026-04-18 01:29 | 63.11333 | 7.82543 | 210 ft | 2 kts | 341° |
| 2026-04-18 01:29 | 63.11337 | 7.82540 | 210 ft | 0 kts | 339° |
| 2026-04-18 01:29 | 63.11340 | 7.82537 | 210 ft | 0 kts | 339° |
| 2026-04-18 01:29 | 63.11341 | 7.82537 | 210 ft | 0 kts | 339° |